createdAt,value
2018-01-25T00:00:13.748Z,8.31
2018-01-25T00:01:14.423Z,8.31
2018-01-25T00:02:18.091Z,8.31
2018-01-25T00:03:13.517Z,8.31
2018-01-25T00:04:15.804Z,8.25
2018-01-25T00:05:16.074Z,8.25
2018-01-25T00:06:13.762Z,8.25
2018-01-25T00:07:14.469Z,8.25
2018-01-25T00:08:17.664Z,8.31
2018-01-25T00:09:15.804Z,8.25
2018-01-25T00:10:14.881Z,8.25
2018-01-25T00:11:15.709Z,8.25
2018-01-25T00:12:12.905Z,8.25
2018-01-25T00:13:16.356Z,8.25
2018-01-25T00:14:13.324Z,8.25
2018-01-25T00:15:13.467Z,8.25
2018-01-25T00:16:15.867Z,8.25
2018-01-25T00:17:16.391Z,8.25
2018-01-25T00:18:12.517Z,8.25
2018-01-25T00:19:16.400Z,8.25
2018-01-25T00:20:15.382Z,8.19
2018-01-25T00:21:13.269Z,8.25
2018-01-25T00:22:16.700Z,8.25
2018-01-25T00:23:14.224Z,8.19
2018-01-25T00:24:16.370Z,8.19
2018-01-25T00:25:15.786Z,8.19
2018-01-25T00:26:14.188Z,8.19
2018-01-25T00:27:13.573Z,8.19
2018-01-25T00:28:13.993Z,8.19
2018-01-25T00:29:14.984Z,8.19
2018-01-25T00:30:13.858Z,8.25
2018-01-25T00:31:16.539Z,8.13
2018-01-25T00:32:12.834Z,8.13
2018-01-25T00:33:13.777Z,8.13
2018-01-25T00:34:14.441Z,8.13
2018-01-25T00:35:17.042Z,8.13
2018-01-25T00:36:14.409Z,8.13
2018-01-25T00:37:15.014Z,8.13
2018-01-25T00:38:14.585Z,8.13
2018-01-25T00:39:12.587Z,8.13
2018-01-25T00:40:14.895Z,8.19
2018-01-25T00:41:17.433Z,8.13
2018-01-25T00:42:12.571Z,8.06
2018-01-25T00:43:13.318Z,8
2018-01-25T00:44:16.271Z,8.06
2018-01-25T00:45:13.045Z,8
2018-01-25T00:46:15.578Z,8.06
2018-01-25T00:47:13.482Z,8.06
2018-01-25T00:48:15.093Z,8.06
2018-01-25T00:49:14.167Z,8.06
2018-01-25T00:52:15.738Z,8
2018-01-25T00:53:14.841Z,8
2018-01-25T00:54:15.555Z,8
2018-01-25T00:55:13.083Z,8
2018-01-25T00:58:30.227Z,8.06
2018-01-25T00:59:14.044Z,8.06
2018-01-25T01:00:14.006Z,8.13
2018-01-25T01:01:15.678Z,8.13
2018-01-25T01:02:15.428Z,8.19
2018-01-25T01:03:13.012Z,8.19
2018-01-25T01:04:15.393Z,8.25
2018-01-25T01:05:16.835Z,8.25
2018-01-25T01:06:14.547Z,8.31
2018-01-25T01:07:16.374Z,8.44
2018-01-25T01:08:16.941Z,8.44
2018-01-25T01:09:15.698Z,8.5
2018-01-25T01:10:14.435Z,8.5
2018-01-25T01:11:12.687Z,8.56
2018-01-25T01:12:13.786Z,8.56
2018-01-25T01:13:14.234Z,8.56
2018-01-25T01:14:13.946Z,8.56
2018-01-25T01:15:12.434Z,8.63
2018-01-25T01:16:12.785Z,8.63
2018-01-25T01:17:12.453Z,8.63
2018-01-25T01:18:12.422Z,8.69
2018-01-25T01:19:12.587Z,8.75
2018-01-25T01:20:12.713Z,8.75
2018-01-25T01:21:12.551Z,8.81
2018-01-25T01:22:12.713Z,8.88
2018-01-25T01:23:12.747Z,9.06
2018-01-25T01:24:12.660Z,9.13
2018-01-25T01:25:12.537Z,9.25
2018-01-25T01:26:12.993Z,9.31
2018-01-25T01:27:12.937Z,9.38
2018-01-25T01:28:12.468Z,9.44
2018-01-25T01:29:12.712Z,9.5
2018-01-25T01:30:12.604Z,9.56
2018-01-25T01:31:12.551Z,9.69
2018-01-25T01:32:12.517Z,9.75
2018-01-25T01:33:12.704Z,9.75
2018-01-25T01:34:12.703Z,9.81
2018-01-25T01:35:12.828Z,9.88
2018-01-25T01:36:12.706Z,9.94
2018-01-25T01:37:12.625Z,10
2018-01-25T01:38:12.555Z,10.06
2018-01-25T01:39:12.695Z,10.13
2018-01-25T01:40:12.507Z,10.19
2018-01-25T01:41:13.058Z,10.19
2018-01-25T01:42:12.781Z,10.25
2018-01-25T01:43:12.436Z,10.19
2018-01-25T01:44:12.723Z,10.31
2018-01-25T01:45:12.619Z,10.31
2018-01-25T01:46:12.504Z,10.44
2018-01-25T01:47:12.770Z,10.38
2018-01-25T01:48:12.595Z,10.44
2018-01-25T01:49:12.613Z,10.44
2018-01-25T01:50:12.630Z,10.44
2018-01-25T01:51:12.506Z,10.44
2018-01-25T01:52:12.657Z,10.5
2018-01-25T01:53:12.427Z,10.56
2018-01-25T01:54:12.451Z,10.56
2018-01-25T01:55:12.691Z,10.63
2018-01-25T01:56:12.533Z,10.69
2018-01-25T01:57:12.749Z,10.63
2018-01-25T01:58:12.507Z,10.69
2018-01-25T01:59:12.442Z,10.69
2018-01-25T02:00:12.262Z,10.69
2018-01-25T02:01:11.961Z,10.69
2018-01-25T02:02:11.808Z,10.63
2018-01-25T02:03:11.581Z,10.56
2018-01-25T02:04:11.786Z,10.56
2018-01-25T02:05:11.665Z,10.56
2018-01-25T02:06:11.613Z,10.5
2018-01-25T02:07:11.594Z,10.56
2018-01-25T02:08:11.584Z,10.44
2018-01-25T02:09:11.743Z,10.5
2018-01-25T02:10:11.583Z,10.56
2018-01-25T02:11:11.502Z,10.5
2018-01-25T02:12:11.493Z,10.56
2018-01-25T02:13:11.648Z,10.5
2018-01-25T02:14:11.522Z,10.5
2018-01-25T02:15:11.530Z,10.44
2018-01-25T02:16:11.708Z,10.44
2018-01-25T02:17:11.776Z,10.56
2018-01-25T02:18:11.588Z,10.5
2018-01-25T02:19:11.891Z,10.56
2018-01-25T02:20:11.535Z,10.5
2018-01-25T02:21:11.805Z,10.5
2018-01-25T02:22:11.770Z,10.5
2018-01-25T02:23:11.597Z,10.56
2018-01-25T02:24:12.173Z,10.56
2018-01-25T02:25:11.859Z,10.56
2018-01-25T02:26:11.682Z,10.56
2018-01-25T02:27:11.793Z,10.56
2018-01-25T02:28:11.888Z,10.56
2018-01-25T02:29:11.774Z,10.56
2018-01-25T02:30:12.021Z,10.5
2018-01-25T02:31:11.886Z,10.5
2018-01-25T02:32:11.806Z,10.5
2018-01-25T02:33:11.781Z,10.56
2018-01-25T02:34:11.736Z,10.44
2018-01-25T02:35:11.914Z,10.5
2018-01-25T02:36:11.613Z,10.5
2018-01-25T02:37:11.919Z,10.5
2018-01-25T02:39:24.600Z,10.44
2018-01-25T02:40:11.779Z,10.5
2018-01-25T02:41:11.794Z,10.44
2018-01-25T02:42:12.032Z,10.5
2018-01-25T02:43:11.828Z,10.56
2018-01-25T02:44:11.986Z,10.56
2018-01-25T02:45:11.720Z,10.56
2018-01-25T02:46:11.900Z,10.5
2018-01-25T02:47:11.741Z,10.56
2018-01-25T02:48:11.783Z,10.5
2018-01-25T02:49:11.893Z,10.5
2018-01-25T02:50:11.669Z,10.5
2018-01-25T02:51:11.906Z,10.5
2018-01-25T02:52:11.801Z,10.5
2018-01-25T02:53:11.692Z,10.56
2018-01-25T02:54:11.802Z,10.56
2018-01-25T02:55:11.567Z,10.56
2018-01-25T02:56:12.442Z,10.56
2018-01-25T02:57:11.856Z,10.56
2018-01-25T02:58:11.625Z,10.56
2018-01-25T02:59:11.604Z,10.63
2018-01-25T03:00:11.696Z,10.63
2018-01-25T03:01:11.616Z,10.69
2018-01-25T03:02:11.806Z,10.69
2018-01-25T03:03:12.152Z,10.69
2018-01-25T03:04:11.792Z,10.69
2018-01-25T03:05:11.705Z,10.69
2018-01-25T03:06:12.009Z,10.69
2018-01-25T03:07:11.937Z,10.69
2018-01-25T03:08:11.835Z,10.69
2018-01-25T03:09:11.581Z,10.69
2018-01-25T03:10:11.582Z,10.69
2018-01-25T03:11:11.761Z,10.69
2018-01-25T03:12:11.811Z,10.69
2018-01-25T03:13:11.918Z,10.75
2018-01-25T03:14:11.684Z,10.69
2018-01-25T03:15:11.756Z,10.75
2018-01-25T03:16:11.876Z,10.69
2018-01-25T03:17:11.695Z,10.69
2018-01-25T03:18:11.650Z,10.69
2018-01-25T03:19:11.916Z,10.63
2018-01-25T03:20:11.668Z,10.63
2018-01-25T03:21:11.913Z,10.63
2018-01-25T03:22:11.714Z,10.63
2018-01-25T03:23:11.823Z,10.63
2018-01-25T03:24:11.834Z,10.56
2018-01-25T03:25:11.710Z,10.56
2018-01-25T03:26:11.870Z,10.56
2018-01-25T03:27:11.802Z,10.56
2018-01-25T03:28:11.723Z,10.5
2018-01-25T03:29:11.897Z,10.5
2018-01-25T03:30:11.871Z,10.56
2018-01-25T03:31:11.740Z,10.5
2018-01-25T03:32:11.828Z,10.56
2018-01-25T03:33:11.922Z,10.5
2018-01-25T03:34:11.916Z,10.56
2018-01-25T03:35:11.983Z,10.56
2018-01-25T03:36:12.016Z,10.56
2018-01-25T03:37:12.715Z,10.63
2018-01-25T03:38:11.638Z,10.69
2018-01-25T03:39:11.620Z,10.69
2018-01-25T03:40:11.972Z,10.75
2018-01-25T03:41:11.946Z,10.81
2018-01-25T03:43:14.272Z,10.75
2018-01-25T03:44:11.742Z,10.81
2018-01-25T03:45:11.925Z,10.81
2018-01-25T03:46:11.865Z,10.88
2018-01-25T03:47:11.989Z,10.81
2018-01-25T03:48:11.666Z,10.81
2018-01-25T03:50:11.832Z,10.81
2018-01-25T03:53:27.674Z,10.81
2018-01-25T03:54:11.883Z,10.81
2018-01-25T03:55:12.082Z,10.88
2018-01-25T03:56:11.799Z,10.94
2018-01-25T03:57:11.882Z,10.94
2018-01-25T03:58:11.833Z,10.94
2018-01-25T03:59:11.969Z,10.94
2018-01-25T04:00:12.052Z,10.94
2018-01-25T04:01:12.516Z,10.94
2018-01-25T04:02:11.811Z,10.94
2018-01-25T04:03:11.973Z,10.94
2018-01-25T04:04:11.947Z,10.94
2018-01-25T04:05:11.880Z,11.06
2018-01-25T04:06:11.889Z,11.06
2018-01-25T04:07:11.907Z,11.06
2018-01-25T04:08:11.802Z,11
2018-01-25T04:09:11.796Z,11
2018-01-25T04:10:11.817Z,11
2018-01-25T04:11:11.853Z,11
2018-01-25T04:12:11.995Z,11
2018-01-25T04:13:11.677Z,11
2018-01-25T04:14:11.750Z,11
2018-01-25T04:15:11.919Z,11
2018-01-25T04:16:12.077Z,10.94
2018-01-25T04:17:11.765Z,11
2018-01-25T04:18:11.925Z,10.94
2018-01-25T04:19:11.765Z,10.94
2018-01-25T04:20:11.806Z,10.94
2018-01-25T04:21:12.020Z,10.94
2018-01-25T04:22:12.085Z,11
2018-01-25T04:23:11.715Z,11
2018-01-25T04:24:11.745Z,11
2018-01-25T04:25:11.869Z,11.06
2018-01-25T04:26:12.734Z,11.06
2018-01-25T04:27:11.760Z,11.06
2018-01-25T04:28:11.918Z,11.12
2018-01-25T04:29:11.878Z,11.12
2018-01-25T04:30:12.887Z,11.12
2018-01-25T04:31:13.122Z,11.12
2018-01-25T04:32:13.172Z,11.12
2018-01-25T04:33:11.890Z,11.12
2018-01-25T04:34:11.880Z,11.19
2018-01-25T04:35:11.899Z,11.19
2018-01-25T04:36:11.766Z,11.25
2018-01-25T04:37:12.083Z,11.19
2018-01-25T04:38:11.977Z,11.25
2018-01-25T04:39:11.998Z,11.25
2018-01-25T04:40:11.740Z,11.31
2018-01-25T04:41:11.965Z,11.38
2018-01-25T04:42:11.948Z,11.44
2018-01-25T04:43:11.940Z,11.38
2018-01-25T04:44:11.744Z,11.38
2018-01-25T04:45:11.996Z,11.38
2018-01-25T04:46:12.014Z,11.38
2018-01-25T04:47:11.927Z,11.38
2018-01-25T04:48:12.038Z,11.31
2018-01-25T04:49:11.893Z,11.31
2018-01-25T04:50:11.888Z,11.31
2018-01-25T04:51:11.895Z,11.25
2018-01-25T04:52:11.862Z,11.31
2018-01-25T04:53:12.012Z,11.31
2018-01-25T04:54:12.066Z,11.38
2018-01-25T04:55:11.854Z,11.31
2018-01-25T04:56:12.043Z,11.31
2018-01-25T04:57:11.960Z,11.38
2018-01-25T04:58:11.931Z,11.31
2018-01-25T04:59:11.938Z,11.38
2018-01-25T05:00:12.172Z,11.31
2018-01-25T05:01:12.099Z,11.31
2018-01-25T05:02:11.777Z,11.38
2018-01-25T05:03:12.513Z,11.38
2018-01-25T05:04:11.788Z,11.38
2018-01-25T05:05:12.035Z,11.38
2018-01-25T05:06:12.112Z,11.38
2018-01-25T05:07:12.006Z,11.38
2018-01-25T05:08:12.052Z,11.31
2018-01-25T05:09:12.081Z,11.38
2018-01-25T05:10:11.822Z,11.38
2018-01-25T05:11:12.165Z,11.38
2018-01-25T05:12:12.030Z,11.38
2018-01-25T05:13:12.531Z,11.31
2018-01-25T05:14:11.941Z,11.38
2018-01-25T05:15:12.045Z,11.38
2018-01-25T05:16:11.825Z,11.38
2018-01-25T05:17:12.047Z,11.38
2018-01-25T05:18:11.877Z,11.38
2018-01-25T05:19:11.841Z,11.38
2018-01-25T05:20:11.889Z,11.38
2018-01-25T05:21:12.253Z,11.38
2018-01-25T05:22:12.010Z,11.38
2018-01-25T05:23:12.030Z,11.38
2018-01-25T05:24:11.703Z,11.31
2018-01-25T05:25:12.043Z,11.31
2018-01-25T05:26:11.728Z,11.31
2018-01-25T05:27:11.986Z,11.31
2018-01-25T05:28:11.948Z,11.31
2018-01-25T05:29:11.915Z,11.31
2018-01-25T05:30:12.005Z,11.31
2018-01-25T05:31:11.919Z,11.31
2018-01-25T05:32:12.162Z,11.31
2018-01-25T05:33:12.146Z,11.31
2018-01-25T05:34:12.250Z,11.31
2018-01-25T05:35:12.095Z,11.31
2018-01-25T05:36:12.014Z,11.31
2018-01-25T05:37:12.161Z,11.38
2018-01-25T05:38:11.959Z,11.38
2018-01-25T05:39:12.138Z,11.31
2018-01-25T05:40:11.913Z,11.31
2018-01-25T05:41:12.062Z,11.25
2018-01-25T05:42:12.042Z,11.31
2018-01-25T05:43:11.855Z,11.31
2018-01-25T05:44:11.938Z,11.25
2018-01-25T05:45:11.755Z,11.25
2018-01-25T05:46:12.134Z,11.31
2018-01-25T05:47:11.846Z,11.25
2018-01-25T05:48:11.811Z,11.25
2018-01-25T05:49:11.922Z,11.25
2018-01-25T05:50:11.856Z,11.25
2018-01-25T05:51:11.847Z,11.19
2018-01-25T05:52:11.880Z,11.19
2018-01-25T05:53:11.784Z,11.19
2018-01-25T05:54:12.048Z,11.25
2018-01-25T05:55:11.777Z,11.25
2018-01-25T05:56:11.762Z,11.25
2018-01-25T05:57:11.987Z,11.25
2018-01-25T05:58:11.802Z,11.25
2018-01-25T05:59:12.111Z,11.31
2018-01-25T06:00:12.082Z,11.25
2018-01-25T06:01:11.931Z,11.31
2018-01-25T06:02:12.324Z,11.31
2018-01-25T06:03:12.096Z,11.31
2018-01-25T06:04:11.935Z,11.31
2018-01-25T06:05:12.303Z,11.31
2018-01-25T06:06:12.354Z,11.31
2018-01-25T06:07:11.917Z,11.31
2018-01-25T06:08:12.162Z,11.31
2018-01-25T06:09:12.069Z,11.31
2018-01-25T06:10:11.929Z,11.38
2018-01-25T06:11:12.036Z,11.38
2018-01-25T06:12:12.007Z,11.38
2018-01-25T06:13:11.962Z,11.38
2018-01-25T06:14:12.095Z,11.38
2018-01-25T06:15:12.079Z,11.38
2018-01-25T06:16:12.111Z,11.38
2018-01-25T06:17:12.194Z,11.38
2018-01-25T06:18:12.289Z,11.38
2018-01-25T06:19:12.093Z,11.38
2018-01-25T06:20:12.136Z,11.38
2018-01-25T06:21:12.158Z,11.38
2018-01-25T06:22:12.161Z,11.38
2018-01-25T06:23:12.544Z,11.38
2018-01-25T06:24:11.872Z,11.38
2018-01-25T06:25:12.059Z,11.38
2018-01-25T06:26:12.050Z,11.38
2018-01-25T06:27:12.028Z,11.31
2018-01-25T06:28:11.914Z,11.31
2018-01-25T06:29:11.889Z,11.31
2018-01-25T06:30:12.192Z,11.31
2018-01-25T06:31:12.044Z,11.31
2018-01-25T06:32:11.959Z,11.38
2018-01-25T06:33:12.304Z,11.38
2018-01-25T06:34:12.241Z,11.38
2018-01-25T06:35:12.065Z,11.31
2018-01-25T06:36:12.179Z,11.31
2018-01-25T06:37:11.742Z,11.31
2018-01-25T06:38:12.122Z,11.31
2018-01-25T06:39:12.090Z,11.38
2018-01-25T06:40:11.926Z,11.38
2018-01-25T06:41:11.937Z,11.44
2018-01-25T06:42:11.833Z,11.44
2018-01-25T06:43:12.133Z,11.44
2018-01-25T06:44:11.988Z,11.44
2018-01-25T06:45:11.930Z,11.38
2018-01-25T06:46:12.014Z,11.38
2018-01-25T06:47:11.765Z,11.38
2018-01-25T06:48:11.818Z,11.31
2018-01-25T06:49:12.233Z,11.38
2018-01-25T06:50:11.844Z,11.38
2018-01-25T06:51:11.900Z,11.31
2018-01-25T06:52:12.019Z,11.38
2018-01-25T06:53:12.038Z,11.38
2018-01-25T06:54:11.813Z,11.44
2018-01-25T06:55:11.856Z,11.38
2018-01-25T06:56:11.791Z,11.44
2018-01-25T06:57:12.044Z,11.38
2018-01-25T06:58:11.877Z,11.38
2018-01-25T06:59:11.980Z,11.38
2018-01-25T07:00:11.998Z,11.38
2018-01-25T07:01:12.181Z,11.38
2018-01-25T07:02:11.945Z,11.38
2018-01-25T07:03:12.104Z,11.38
2018-01-25T07:04:12.061Z,11.38
2018-01-25T07:05:12.092Z,11.38
2018-01-25T07:06:12.056Z,11.38
2018-01-25T07:07:11.998Z,11.38
2018-01-25T07:08:12.014Z,11.38
2018-01-25T07:09:11.929Z,11.38
2018-01-25T07:10:11.982Z,11.38
2018-01-25T07:11:12.268Z,11.38
2018-01-25T07:12:12.118Z,11.38
2018-01-25T07:13:11.919Z,11.38
2018-01-25T07:14:11.952Z,11.31
2018-01-25T07:15:12.018Z,11.38
2018-01-25T07:16:12.297Z,11.38
2018-01-25T07:17:11.933Z,11.38
2018-01-25T07:18:12.096Z,11.44
2018-01-25T07:19:12.048Z,11.38
2018-01-25T07:20:12.010Z,11.38
2018-01-25T07:21:11.943Z,11.38
2018-01-25T07:22:12.213Z,11.38
2018-01-25T07:23:12.171Z,11.38
2018-01-25T07:24:11.872Z,11.38
2018-01-25T07:25:12.053Z,11.38
2018-01-25T07:26:12.302Z,11.44
2018-01-25T07:27:12.210Z,11.44
2018-01-25T07:28:12.365Z,11.38
2018-01-25T07:29:12.173Z,11.38
2018-01-25T07:30:12.089Z,11.38
2018-01-25T07:31:11.985Z,11.38
2018-01-25T07:32:12.052Z,11.38
2018-01-25T07:33:12.223Z,11.38
2018-01-25T07:34:12.052Z,11.38
2018-01-25T07:35:12.652Z,11.38
2018-01-25T07:36:12.106Z,11.31
2018-01-25T07:37:12.081Z,11.31
2018-01-25T07:38:12.130Z,11.25
2018-01-25T07:39:12.060Z,11.25
2018-01-25T07:40:12.376Z,11.25
2018-01-25T07:41:12.203Z,11.19
2018-01-25T07:42:12.197Z,11.12
2018-01-25T07:43:12.265Z,11.12
2018-01-25T07:44:12.080Z,11.12
2018-01-25T07:45:12.394Z,11.06
2018-01-25T07:46:12.199Z,11.06
2018-01-25T07:47:12.090Z,11
2018-01-25T07:48:12.049Z,11.06
2018-01-25T07:49:12.040Z,11
2018-01-25T07:50:12.024Z,11
2018-01-25T07:51:12.291Z,11
2018-01-25T07:52:12.022Z,10.94
2018-01-25T07:53:12.055Z,10.94
2018-01-25T07:54:12.167Z,10.94
2018-01-25T07:55:12.191Z,10.94
2018-01-25T07:56:12.277Z,10.94
2018-01-25T07:57:11.957Z,10.88
2018-01-25T07:58:11.961Z,10.94
2018-01-25T07:59:12.611Z,10.88
2018-01-25T08:00:12.006Z,10.88
2018-01-25T08:01:12.385Z,10.94
2018-01-25T08:02:11.936Z,10.88
2018-01-25T08:03:12.479Z,10.88
2018-01-25T08:04:12.615Z,10.88
2018-01-25T08:05:12.291Z,10.88
2018-01-25T08:06:13.153Z,10.81
2018-01-25T08:07:12.271Z,10.88
2018-01-25T08:08:12.514Z,10.88
2018-01-25T08:09:12.435Z,10.81
2018-01-25T08:10:12.284Z,10.88
2018-01-25T08:11:12.369Z,10.81
2018-01-25T08:12:12.358Z,10.81
2018-01-25T08:13:12.736Z,10.81
2018-01-25T08:14:12.235Z,10.75
2018-01-25T08:15:12.320Z,10.75
2018-01-25T08:16:12.297Z,10.75
2018-01-25T08:17:12.308Z,10.75
2018-01-25T08:18:12.448Z,10.75
2018-01-25T08:19:12.313Z,10.75
2018-01-25T08:20:12.380Z,10.81
2018-01-25T08:21:12.490Z,10.75
2018-01-25T08:22:12.473Z,10.75
2018-01-25T08:23:12.555Z,10.75
2018-01-25T08:24:12.350Z,10.75
2018-01-25T08:25:12.548Z,10.69
2018-01-25T08:26:12.343Z,10.69
2018-01-25T08:27:12.366Z,10.69
2018-01-25T08:28:12.473Z,10.69
2018-01-25T08:29:12.513Z,10.75
2018-01-25T08:30:12.569Z,10.69
2018-01-25T08:31:12.199Z,10.75
2018-01-25T08:32:12.336Z,10.75
2018-01-25T08:33:12.442Z,10.75
2018-01-25T08:34:12.292Z,10.81
2018-01-25T08:35:12.252Z,10.75
2018-01-25T08:36:12.587Z,10.75
2018-01-25T08:37:12.334Z,10.75
2018-01-25T08:38:12.440Z,10.75
2018-01-25T08:39:12.921Z,10.81
2018-01-25T08:40:12.411Z,10.81
2018-01-25T08:41:12.484Z,10.81
2018-01-25T08:42:12.479Z,10.81
2018-01-25T08:43:12.640Z,10.81
2018-01-25T08:44:12.571Z,10.75
2018-01-25T08:45:14.956Z,10.81
2018-01-25T08:46:12.490Z,10.81
2018-01-25T08:47:12.512Z,10.81
2018-01-25T08:48:12.525Z,10.81
2018-01-25T08:49:12.460Z,10.88
2018-01-25T08:50:13.032Z,10.88
2018-01-25T08:51:12.280Z,10.88
2018-01-25T08:52:12.446Z,10.94
2018-01-25T08:53:12.515Z,10.88
2018-01-25T08:54:12.629Z,10.88
2018-01-25T08:55:12.321Z,10.94
2018-01-25T08:56:12.434Z,10.94
2018-01-25T08:57:12.204Z,10.94
2018-01-25T08:58:12.857Z,10.94
2018-01-25T08:59:12.432Z,10.94
2018-01-25T09:00:12.457Z,10.94
2018-01-25T09:01:12.364Z,10.94
2018-01-25T09:02:12.234Z,10.94
2018-01-25T09:03:12.526Z,11
2018-01-25T09:04:12.567Z,10.94
2018-01-25T09:05:12.630Z,10.94
2018-01-25T09:06:12.601Z,10.94
2018-01-25T09:07:12.304Z,11
2018-01-25T09:08:12.528Z,10.94
2018-01-25T09:09:12.502Z,11
2018-01-25T09:10:12.761Z,11
2018-01-25T09:11:12.239Z,11
2018-01-25T09:12:12.313Z,11
2018-01-25T09:13:12.788Z,11
2018-01-25T09:14:12.539Z,11
2018-01-25T09:15:12.613Z,11
2018-01-25T09:16:12.482Z,11
2018-01-25T09:17:12.554Z,10.94
2018-01-25T09:18:12.470Z,11
2018-01-25T09:19:12.534Z,11
2018-01-25T09:20:12.417Z,10.94
2018-01-25T09:21:12.669Z,11
2018-01-25T09:22:12.690Z,10.94
2018-01-25T09:23:12.652Z,10.94
2018-01-25T09:24:12.587Z,11
2018-01-25T09:25:12.603Z,11
2018-01-25T09:26:12.585Z,11
2018-01-25T09:27:12.739Z,11
2018-01-25T09:28:12.607Z,11
2018-01-25T09:29:12.442Z,11
2018-01-25T09:30:12.420Z,11
2018-01-25T09:31:12.418Z,11
2018-01-25T09:32:12.610Z,11
2018-01-25T09:33:12.499Z,11.06
2018-01-25T09:34:11.743Z,11.06
2018-01-25T09:35:12.044Z,11.06
2018-01-25T09:36:11.534Z,11.06
2018-01-25T09:37:11.248Z,11.06
2018-01-25T09:38:11.673Z,11.06
2018-01-25T09:39:11.612Z,11.06
2018-01-25T09:40:11.621Z,11.12
2018-01-25T09:41:11.489Z,11.12
2018-01-25T09:42:11.454Z,11.12
2018-01-25T09:43:11.312Z,11.06
2018-01-25T09:44:11.674Z,11.12
2018-01-25T09:45:11.575Z,11.12
2018-01-25T09:46:11.610Z,11.06
2018-01-25T09:47:11.640Z,11.06
2018-01-25T09:48:11.585Z,11.06
2018-01-25T09:49:11.502Z,11.12
2018-01-25T09:50:11.525Z,11.12
2018-01-25T09:51:11.648Z,11.12
2018-01-25T09:52:11.742Z,11.12
2018-01-25T09:53:11.565Z,11.12
2018-01-25T09:54:11.557Z,11.12
2018-01-25T09:55:11.695Z,11.19
2018-01-25T09:56:11.842Z,11.19
2018-01-25T09:57:11.676Z,11.19
2018-01-25T09:58:11.540Z,11.19
2018-01-25T09:59:11.685Z,11.19
2018-01-25T10:00:11.718Z,11.19
2018-01-25T10:01:11.702Z,11.19
2018-01-25T10:02:11.457Z,11.19
2018-01-25T10:03:11.771Z,11.19
2018-01-25T10:04:11.596Z,11.19
2018-01-25T10:05:12.332Z,11.19
2018-01-25T10:06:11.549Z,11.25
2018-01-25T10:07:11.824Z,11.19
2018-01-25T10:08:11.544Z,11.19
2018-01-25T10:09:11.521Z,11.19
2018-01-25T10:10:11.562Z,11.19
2018-01-25T10:11:11.538Z,11.19
2018-01-25T10:12:11.776Z,11.19
2018-01-25T10:13:11.664Z,11.25
2018-01-25T10:14:11.546Z,11.31
2018-01-25T10:15:11.516Z,11.31
2018-01-25T10:16:11.504Z,11.31
2018-01-25T10:17:11.628Z,11.31
2018-01-25T10:18:11.588Z,11.31
2018-01-25T10:19:11.537Z,11.31
2018-01-25T10:20:11.650Z,11.31
2018-01-25T10:21:11.569Z,11.31
2018-01-25T10:22:11.692Z,11.38
2018-01-25T10:23:11.578Z,11.38
2018-01-25T10:24:11.947Z,11.38
2018-01-25T10:25:11.877Z,11.44
2018-01-25T10:26:11.695Z,11.44
2018-01-25T10:27:11.649Z,11.44
2018-01-25T10:28:11.669Z,11.44
2018-01-25T10:29:12.049Z,11.44
2018-01-25T10:30:12.117Z,11.5
2018-01-25T10:31:11.705Z,11.44
2018-01-25T10:32:11.580Z,11.44
2018-01-25T10:33:11.612Z,11.44
2018-01-25T10:34:11.713Z,11.44
2018-01-25T10:35:11.859Z,11.44
2018-01-25T10:36:11.594Z,11.44
2018-01-25T10:37:11.693Z,11.44
2018-01-25T10:38:11.619Z,11.44
2018-01-25T10:39:11.490Z,11.44
2018-01-25T10:40:11.625Z,11.44
2018-01-25T10:41:12.522Z,11.44
2018-01-25T10:42:11.810Z,11.5
2018-01-25T10:43:11.965Z,11.5
2018-01-25T10:44:11.780Z,11.5
2018-01-25T10:45:12.329Z,11.44
2018-01-25T10:46:12.000Z,11.5
2018-01-25T10:47:11.947Z,11.44
2018-01-25T10:48:11.644Z,11.44
2018-01-25T10:49:12.232Z,11.5
2018-01-25T10:50:11.902Z,11.44
2018-01-25T10:51:11.812Z,11.5
2018-01-25T10:52:11.570Z,11.5
2018-01-25T10:53:11.562Z,11.5
2018-01-25T10:54:13.529Z,11.56
2018-01-25T10:55:13.118Z,11.5
2018-01-25T10:56:12.343Z,11.56
2018-01-25T10:57:13.930Z,11.5
2018-01-25T10:58:13.678Z,11.5
2018-01-25T10:59:14.398Z,11.5
2018-01-25T11:00:16.369Z,11.56
2018-01-25T11:01:13.917Z,11.5
2018-01-25T11:02:12.540Z,11.5
2018-01-25T11:03:15.289Z,11.56
2018-01-25T11:04:12.821Z,11.5
2018-01-25T11:05:12.655Z,11.56
2018-01-25T11:06:14.978Z,11.56
2018-01-25T11:07:12.497Z,11.56
2018-01-25T11:08:14.951Z,11.56
2018-01-25T11:09:16.264Z,11.5
2018-01-25T11:10:15.264Z,11.56
2018-01-25T11:11:12.451Z,11.5
2018-01-25T11:12:12.725Z,11.56
2018-01-25T11:13:13.268Z,11.56
2018-01-25T11:14:12.802Z,11.5
2018-01-25T11:15:12.485Z,11.56
2018-01-25T11:16:14.968Z,11.56
2018-01-25T11:17:14.712Z,11.56
2018-01-25T11:18:15.681Z,11.56
2018-01-25T11:19:14.108Z,11.56
2018-01-25T11:20:16.032Z,11.56
2018-01-25T11:21:18.350Z,11.56
2018-01-25T11:22:15.921Z,11.63
2018-01-25T11:23:14.548Z,11.56
2018-01-25T11:24:11.888Z,11.56
2018-01-25T11:25:12.617Z,11.56
2018-01-25T11:26:12.986Z,11.56
2018-01-25T11:27:17.631Z,11.63
2018-01-25T11:28:15.386Z,11.63
2018-01-25T11:29:14.766Z,11.63
2018-01-25T11:30:13.307Z,11.63
2018-01-25T11:31:13.942Z,11.63
2018-01-25T11:32:16.710Z,11.63
2018-01-25T11:33:13.206Z,11.63
2018-01-25T11:34:12.829Z,11.63
2018-01-25T11:35:13.610Z,11.63
2018-01-25T11:36:12.843Z,11.63
2018-01-25T11:37:12.412Z,11.69
2018-01-25T11:38:12.796Z,11.63
2018-01-25T11:39:12.658Z,11.69
2018-01-25T11:40:12.105Z,11.69
2018-01-25T11:41:12.200Z,11.75
2018-01-25T11:42:12.134Z,11.69
2018-01-25T11:43:11.961Z,11.75
2018-01-25T11:44:11.879Z,11.75
2018-01-25T11:45:12.109Z,11.81
2018-01-25T11:46:12.073Z,11.81
2018-01-25T11:47:11.830Z,11.81
2018-01-25T11:48:12.076Z,11.81
2018-01-25T11:49:12.078Z,11.88
2018-01-25T11:50:11.768Z,11.88
2018-01-25T11:51:12.147Z,11.88
2018-01-25T11:52:11.927Z,11.88
2018-01-25T11:53:11.936Z,11.94
2018-01-25T11:54:11.908Z,11.88
2018-01-25T11:55:12.002Z,11.94
2018-01-25T11:56:12.151Z,11.94
2018-01-25T11:57:12.032Z,12
2018-01-25T11:58:12.194Z,11.94
2018-01-25T11:59:11.928Z,12
2018-01-25T12:00:11.908Z,12
2018-01-25T12:01:11.871Z,12
2018-01-25T12:02:12.065Z,12
2018-01-25T12:03:12.149Z,12.06
2018-01-25T12:04:12.284Z,12
2018-01-25T12:05:12.189Z,12
2018-01-25T12:06:12.334Z,12
2018-01-25T12:07:12.393Z,12
2018-01-25T12:08:12.459Z,12.06
2018-01-25T12:09:12.386Z,12.06
2018-01-25T12:10:12.182Z,12.06
2018-01-25T12:11:12.239Z,12.06
2018-01-25T12:12:12.153Z,12.06
2018-01-25T12:13:12.191Z,12.13
2018-01-25T12:14:12.500Z,12.06
2018-01-25T12:15:12.271Z,12.06
2018-01-25T12:16:12.520Z,12.06
2018-01-25T12:17:12.400Z,12.13
2018-01-25T12:18:12.277Z,12.06
2018-01-25T12:19:12.302Z,12.06
2018-01-25T12:20:12.481Z,12.06
2018-01-25T12:21:12.552Z,12.06
2018-01-25T12:22:12.379Z,12.13
2018-01-25T12:23:12.193Z,12.06
2018-01-25T12:24:12.369Z,12.13
2018-01-25T12:25:12.325Z,12.13
2018-01-25T12:26:12.485Z,12.13
2018-01-25T12:27:12.409Z,12.19
2018-01-25T12:28:12.279Z,12.13
2018-01-25T12:29:12.216Z,12.13
2018-01-25T12:30:12.150Z,12.13
2018-01-25T12:31:12.342Z,12.13
2018-01-25T12:32:12.275Z,12.13
2018-01-25T12:33:12.354Z,12.13
2018-01-25T12:34:13.296Z,12.13
2018-01-25T12:35:11.712Z,12.13
2018-01-25T12:36:11.786Z,12.13
2018-01-25T12:37:11.502Z,12.13
2018-01-25T12:38:11.443Z,12.13
2018-01-25T12:39:11.482Z,12.13
2018-01-25T12:40:11.610Z,12.13
2018-01-25T12:41:11.721Z,12.13
2018-01-25T12:42:11.396Z,12.13
2018-01-25T12:43:11.540Z,12.13
2018-01-25T12:44:11.687Z,12.06
2018-01-25T12:45:11.674Z,12.13
2018-01-25T12:46:11.654Z,12.13
2018-01-25T12:47:11.477Z,12.13
2018-01-25T12:48:11.650Z,12.13
2018-01-25T12:49:11.634Z,12.06
2018-01-25T12:50:11.350Z,12.13
2018-01-25T12:51:11.640Z,12.13
2018-01-25T12:52:11.541Z,12.13
2018-01-25T12:53:11.427Z,12.13
2018-01-25T12:54:11.756Z,12.06
2018-01-25T12:55:11.632Z,12.06
2018-01-25T12:56:11.888Z,12.06
2018-01-25T12:57:11.507Z,12.06
2018-01-25T12:58:11.514Z,12.13
2018-01-25T12:59:11.547Z,12.13
2018-01-25T13:00:11.700Z,12.13
2018-01-25T13:01:11.392Z,12.25
2018-01-25T13:02:11.627Z,12.25
2018-01-25T13:03:11.396Z,12.31
2018-01-25T13:04:11.456Z,12.31
2018-01-25T13:05:11.758Z,12.31
2018-01-25T13:06:11.491Z,12.37
2018-01-25T13:07:11.450Z,12.37
2018-01-25T13:08:11.580Z,12.37
2018-01-25T13:09:11.684Z,12.37
2018-01-25T13:10:11.701Z,12.44
2018-01-25T13:11:11.587Z,12.44